createdAt,value
2023-01-26T00:01:17.652Z,99.37
2023-01-26T00:03:45.549Z,92.70
2023-01-26T00:06:14.858Z,92.90
2023-01-26T00:08:46.345Z,87.80
2023-01-26T00:11:15.348Z,92.20
2023-01-26T00:13:43.215Z,92.50
2023-01-26T00:16:11.986Z,85.87
2023-01-26T00:18:39.975Z,90.10
2023-01-26T00:21:08.605Z,92.33
2023-01-26T00:23:36.459Z,92.43
2023-01-26T00:26:06.506Z,95.30
2023-01-26T00:28:34.020Z,93.60
2023-01-26T00:31:05.547Z,92.67
2023-01-26T00:33:33.317Z,96.30
2023-01-26T00:36:01.033Z,103.27
2023-01-26T00:38:28.695Z,89.40
2023-01-26T00:40:56.305Z,97.50
2023-01-26T00:43:23.808Z,95.20
2023-01-26T00:45:51.321Z,109.67
2023-01-26T00:48:18.936Z,97.67
2023-01-26T00:50:46.408Z,96.70
2023-01-26T00:53:14.002Z,95.30
2023-01-26T00:55:41.461Z,106.53
2023-01-26T00:58:09.588Z,92.43
2023-01-26T01:00:39.699Z,93.43
2023-01-26T01:03:10.132Z,96.40
2023-01-26T01:05:37.648Z,98.17
2023-01-26T01:08:05.223Z,89.00
2023-01-26T01:10:32.711Z,97.70
2023-01-26T01:13:00.160Z,104.33
2023-01-26T01:15:27.747Z,94.57
2023-01-26T01:17:55.246Z,96.63
2023-01-26T01:20:22.755Z,99.93
2023-01-26T01:22:51.643Z,99.10
2023-01-26T01:25:19.265Z,96.80
2023-01-26T01:27:46.778Z,97.87
2023-01-26T01:30:15.428Z,96.70
2023-01-26T01:32:42.900Z,93.80
2023-01-26T01:35:10.424Z,103.90
2023-01-26T01:37:37.875Z,103.93
2023-01-26T01:40:05.584Z,97.63
2023-01-26T01:42:34.119Z,102.13
2023-01-26T01:45:20.079Z,99.27
2023-01-26T01:47:47.570Z,91.53
2023-01-26T01:50:17.696Z,99.33
2023-01-26T01:52:45.369Z,80.67
2023-01-26T01:55:13.942Z,87.03
2023-01-26T01:57:46.800Z,89.87
2023-01-26T02:00:16.028Z,92.23
2023-01-26T02:02:44.962Z,91.10
2023-01-26T02:05:22.937Z,87.13
2023-01-26T02:07:51.242Z,93.00
2023-01-26T02:10:20.499Z,88.73
2023-01-26T02:12:51.366Z,85.57
2023-01-26T02:15:18.864Z,87.87
2023-01-26T02:17:46.380Z,91.63
2023-01-26T02:20:26.123Z,95.47
2023-01-26T02:23:01.296Z,99.80
2023-01-26T02:25:34.614Z,87.07
2023-01-26T02:28:02.135Z,86.53
2023-01-26T02:30:29.907Z,89.20
2023-01-26T02:32:57.512Z,85.13
2023-01-26T02:35:25.045Z,84.37
2023-01-26T02:37:52.597Z,89.50
2023-01-26T02:40:35.479Z,81.53
2023-01-26T02:43:03.079Z,86.10
2023-01-26T02:45:30.936Z,81.70
2023-01-26T02:47:58.454Z,85.60
2023-01-26T02:50:26.009Z,83.77
2023-01-26T02:52:53.505Z,89.13
2023-01-26T02:55:20.972Z,89.93
2023-01-26T02:57:50.782Z,86.67
2023-01-26T03:00:18.599Z,84.30
2023-01-26T03:02:46.482Z,89.60
2023-01-26T03:05:14.449Z,84.60
2023-01-26T03:07:41.937Z,89.70
2023-01-26T03:10:10.236Z,89.93
2023-01-26T03:12:37.941Z,87.30
2023-01-26T03:15:07.311Z,93.30
2023-01-26T03:17:34.806Z,96.43
2023-01-26T03:20:02.510Z,87.83
2023-01-26T03:22:30.054Z,80.60
2023-01-26T03:24:57.708Z,87.80
2023-01-26T03:27:25.300Z,90.33
2023-01-26T03:29:52.739Z,86.63
2023-01-26T03:32:20.341Z,95.57
2023-01-26T03:34:47.843Z,97.93
2023-01-26T03:37:15.419Z,96.27
2023-01-26T03:39:42.871Z,117.10
2023-01-26T03:42:10.438Z,95.93
2023-01-26T03:44:37.909Z,104.60
2023-01-26T03:47:05.602Z,98.60
2023-01-26T03:49:33.060Z,90.53
2023-01-26T03:52:00.564Z,104.03
2023-01-26T03:54:28.034Z,93.57
2023-01-26T03:56:57.532Z,102.77
2023-01-26T03:59:25.063Z,107.17
2023-01-26T04:01:52.574Z,104.73
2023-01-26T04:04:20.172Z,96.00
2023-01-26T04:06:48.632Z,93.93
2023-01-26T04:09:16.142Z,93.50
2023-01-26T04:11:43.628Z,101.90
2023-01-26T04:14:11.826Z,96.97
2023-01-26T04:16:39.317Z,104.03
2023-01-26T04:19:06.937Z,100.17
2023-01-26T04:21:34.907Z,109.97
2023-01-26T04:24:03.180Z,105.57
2023-01-26T04:26:31.956Z,114.97
2023-01-26T04:28:59.468Z,106.90
2023-01-26T04:31:26.953Z,103.13
2023-01-26T04:33:54.488Z,100.77
2023-01-26T04:36:21.966Z,102.77
2023-01-26T04:38:49.473Z,102.10
2023-01-26T04:41:17.197Z,101.60
2023-01-26T04:43:44.901Z,98.47
2023-01-26T04:46:12.363Z,108.77
2023-01-26T04:48:39.874Z,104.33
2023-01-26T04:51:08.502Z,100.77
2023-01-26T04:53:36.251Z,96.07
2023-01-26T04:56:03.815Z,114.33
2023-01-26T04:58:31.381Z,112.60
2023-01-26T05:00:59.242Z,101.60
2023-01-26T05:03:27.052Z,113.57
2023-01-26T05:05:55.540Z,110.40
2023-01-26T05:08:23.380Z,103.40
2023-01-26T05:10:50.886Z,105.20
2023-01-26T05:13:18.562Z,96.73
2023-01-26T05:15:46.933Z,109.50
2023-01-26T05:18:14.480Z,101.60
2023-01-26T05:20:41.999Z,96.40
2023-01-26T05:23:09.490Z,106.97
2023-01-26T05:25:37.170Z,101.60
2023-01-26T05:28:04.790Z,107.97
2023-01-26T05:30:32.465Z,98.80
2023-01-26T05:33:07.993Z,92.00
2023-01-26T05:35:35.498Z,97.13
2023-01-26T05:38:03.079Z,74.17
2023-01-26T05:40:30.595Z,81.77
2023-01-26T05:42:58.067Z,86.30
2023-01-26T05:45:25.613Z,70.43
2023-01-26T05:47:53.099Z,96.10
2023-01-26T05:50:20.647Z,71.87
2023-01-26T05:52:48.117Z,85.93
2023-01-26T05:55:15.757Z,83.63
2023-01-26T05:57:43.249Z,85.33
2023-01-26T06:00:12.078Z,76.23
2023-01-26T06:02:39.821Z,79.40
2023-01-26T06:05:07.725Z,76.77
2023-01-26T06:07:35.169Z,74.13
2023-01-26T06:10:02.684Z,89.33
2023-01-26T06:12:30.139Z,84.67
2023-01-26T06:14:58.308Z,93.90
2023-01-26T06:17:25.791Z,88.23
2023-01-26T06:19:53.376Z,91.73
2023-01-26T06:22:20.818Z,99.03
2023-01-26T06:24:48.351Z,85.70
2023-01-26T06:27:16.557Z,83.37
2023-01-26T06:29:44.355Z,94.27
2023-01-26T06:32:12.357Z,90.07
2023-01-26T06:34:40.188Z,80.10
2023-01-26T06:37:07.790Z,87.60
2023-01-26T06:39:35.388Z,85.83
2023-01-26T06:42:02.886Z,78.53
2023-01-26T06:44:30.412Z,82.90
2023-01-26T06:46:57.900Z,84.77
2023-01-26T06:49:25.449Z,87.57
2023-01-26T06:51:57.723Z,78.13
2023-01-26T06:54:25.293Z,69.07
2023-01-26T06:56:52.753Z,73.67
2023-01-26T06:59:20.304Z,80.03
2023-01-26T07:01:48.159Z,73.77
2023-01-26T07:04:15.828Z,67.00
2023-01-26T07:06:43.257Z,70.37
2023-01-26T07:09:11.487Z,73.40
2023-01-26T07:11:38.975Z,86.67
2023-01-26T07:14:06.534Z,83.83
2023-01-26T07:16:34.203Z,82.73
2023-01-26T07:19:01.981Z,77.03
2023-01-26T07:21:29.439Z,79.83
2023-01-26T07:23:56.998Z,75.00
2023-01-26T07:26:24.525Z,71.83
2023-01-26T07:28:52.069Z,69.33
2023-01-26T07:31:19.726Z,71.43
2023-01-26T07:33:47.326Z,66.00
2023-01-26T07:36:14.786Z,73.20
2023-01-26T07:38:42.335Z,73.87
2023-01-26T07:41:10.787Z,64.43
2023-01-26T07:43:38.750Z,64.93
2023-01-26T07:46:07.517Z,62.43
2023-01-26T07:48:35.103Z,68.47
2023-01-26T07:51:03.471Z,71.50
2023-01-26T07:53:31.678Z,73.70
2023-01-26T07:56:09.533Z,59.50
2023-01-26T07:58:37.039Z,60.73
2023-01-26T08:01:05.159Z,68.83
2023-01-26T08:03:32.708Z,69.30
2023-01-26T08:06:00.213Z,67.47
2023-01-26T08:08:28.073Z,74.90
2023-01-26T08:11:02.178Z,69.43
2023-01-26T08:13:35.664Z,61.43
2023-01-26T08:16:05.352Z,69.37
2023-01-26T08:18:32.915Z,63.80
2023-01-26T08:21:00.471Z,70.70
2023-01-26T08:23:28.076Z,64.03
2023-01-26T08:25:55.659Z,63.60
2023-01-26T08:28:23.145Z,63.90
2023-01-26T08:30:52.794Z,66.53
2023-01-26T08:33:20.363Z,73.57
2023-01-26T08:35:47.846Z,80.83
2023-01-26T08:38:15.365Z,85.47
2023-01-26T08:40:42.862Z,82.23
2023-01-26T08:43:10.419Z,76.90
2023-01-26T08:45:37.930Z,70.83
2023-01-26T08:48:05.741Z,78.80
2023-01-26T08:50:33.190Z,75.93
2023-01-26T08:53:00.701Z,75.83
2023-01-26T08:55:28.160Z,77.77
2023-01-26T08:57:55.721Z,76.97
2023-01-26T09:00:23.759Z,78.60
2023-01-26T09:02:52.314Z,76.47
2023-01-26T09:05:19.877Z,77.00
2023-01-26T09:07:47.423Z,78.23
2023-01-26T09:10:15.073Z,76.83
2023-01-26T09:12:42.713Z,80.73
2023-01-26T09:15:10.613Z,89.10
2023-01-26T09:17:38.185Z,87.67
2023-01-26T09:20:06.248Z,82.30
2023-01-26T09:22:33.787Z,84.53
2023-01-26T09:25:01.304Z,97.30
2023-01-26T09:27:28.812Z,83.60
2023-01-26T09:29:56.324Z,74.47
2023-01-26T09:32:24.045Z,64.33
2023-01-26T09:34:51.514Z,74.83
2023-01-26T09:37:19.095Z,80.40
2023-01-26T09:39:46.559Z,63.23
2023-01-26T09:42:32.993Z,65.07
2023-01-26T09:45:06.797Z,61.07
2023-01-26T09:47:42.831Z,65.13
2023-01-26T09:50:13.920Z,74.27
2023-01-26T09:53:13.933Z,61.37
2023-01-26T09:55:42.072Z,62.10
2023-01-26T09:58:18.431Z,58.27
2023-01-26T10:00:47.813Z,61.77
2023-01-26T10:03:27.542Z,69.07
2023-01-26T10:05:58.711Z,64.73
2023-01-26T10:08:26.537Z,69.40
2023-01-26T10:10:59.527Z,70.77
2023-01-26T10:13:27.184Z,62.13
2023-01-26T10:16:10.985Z,50.83
2023-01-26T10:18:48.545Z,65.60
2023-01-26T10:21:16.587Z,40.50
2023-01-26T10:23:48.364Z,34.40
2023-01-26T10:26:17.741Z,38.00
2023-01-26T10:28:46.613Z,36.90
2023-01-26T10:31:25.486Z,34.90
2023-01-26T10:34:07.074Z,32.33
2023-01-26T10:36:34.580Z,30.33
2023-01-26T10:39:09.465Z,32.50
2023-01-26T10:41:37.586Z,29.67
2023-01-26T10:44:10.937Z,24.43
2023-01-26T10:46:39.547Z,25.23
2023-01-26T10:49:10.206Z,25.20
2023-01-26T10:51:39.064Z,21.90
2023-01-26T10:54:26.182Z,28.53
2023-01-26T10:56:53.719Z,25.27
2023-01-26T10:59:25.787Z,23.97
2023-01-26T11:02:13.583Z,20.70
2023-01-26T11:04:41.381Z,24.77
2023-01-26T11:07:24.529Z,27.80
2023-01-26T11:09:53.515Z,27.67
2023-01-26T11:12:22.068Z,27.00
2023-01-26T11:15:15.694Z,26.40
2023-01-26T11:17:50.038Z,23.73
2023-01-26T11:20:32.990Z,18.97
2023-01-26T11:23:00.471Z,23.47
2023-01-26T11:25:27.947Z,20.60
2023-01-26T11:28:27.963Z,19.93
2023-01-26T11:31:04.469Z,18.40
2023-01-26T11:33:50.209Z,17.93
2023-01-26T11:36:20.757Z,20.53
2023-01-26T11:39:00.914Z,26.70
2023-01-26T11:41:35.128Z,24.53
2023-01-26T11:44:21.705Z,25.57
2023-01-26T11:46:55.026Z,24.50
2023-01-26T11:49:22.543Z,24.30
2023-01-26T11:51:59.381Z,22.93
2023-01-26T11:54:35.571Z,21.97
2023-01-26T11:57:21.710Z,24.63
2023-01-26T11:59:53.759Z,21.27
2023-01-26T12:02:27.951Z,21.93
2023-01-26T12:04:56.556Z,21.93
2023-01-26T12:07:27.856Z,17.63
2023-01-26T12:09:55.563Z,17.53
2023-01-26T12:12:27.080Z,21.93
2023-01-26T12:15:01.286Z,20.23
2023-01-26T12:17:31.675Z,14.70
2023-01-26T12:20:20.329Z,18.93
2023-01-26T12:22:53.178Z,15.50
2023-01-26T12:25:20.862Z,12.67
2023-01-26T12:27:51.683Z,18.50
2023-01-26T12:30:19.236Z,12.60
2023-01-26T12:32:46.811Z,16.53
2023-01-26T12:35:14.508Z,14.23
2023-01-26T12:37:46.415Z,15.27
2023-01-26T12:40:27.193Z,14.70
2023-01-26T12:42:54.675Z,14.23
2023-01-26T12:45:25.398Z,15.30
2023-01-26T12:47:54.913Z,17.77
2023-01-26T12:50:28.380Z,18.47
2023-01-26T12:52:58.526Z,16.33
2023-01-26T12:55:28.818Z,18.23
2023-01-26T12:58:02.136Z,22.07
2023-01-26T13:00:31.245Z,26.97
2023-01-26T13:03:04.410Z,25.93
2023-01-26T13:05:33.696Z,27.40
2023-01-26T13:08:36.576Z,29.47
2023-01-26T13:11:06.060Z,27.47
2023-01-26T13:13:52.090Z,29.10
2023-01-26T13:16:19.605Z,28.00
2023-01-26T13:18:51.577Z,32.17
2023-01-26T13:21:27.970Z,36.53
2023-01-26T13:23:55.992Z,32.40
2023-01-26T13:26:32.596Z,28.77
2023-01-26T13:29:19.173Z,41.80
2023-01-26T13:31:46.735Z,33.10
2023-01-26T13:34:15.903Z,45.13
2023-01-26T13:36:45.022Z,40.73
2023-01-26T13:39:15.323Z,35.23
2023-01-26T13:41:47.235Z,38.43
2023-01-26T13:44:17.675Z,38.77
2023-01-26T13:46:52.249Z,40.83
2023-01-26T13:49:27.346Z,53.30
2023-01-26T13:51:55.073Z,40.50
2023-01-26T13:54:23.386Z,52.40
2023-01-26T13:57:01.565Z,46.43
2023-01-26T13:59:29.247Z,47.37
2023-01-26T14:01:57.937Z,48.20
2023-01-26T14:04:25.505Z,55.13
2023-01-26T14:06:52.962Z,56.53
2023-01-26T14:09:20.761Z,49.97
2023-01-26T14:11:54.508Z,62.07
2023-01-26T14:14:25.392Z,49.40
2023-01-26T14:16:53.090Z,49.83
2023-01-26T14:19:22.216Z,75.70
2023-01-26T14:21:50.567Z,49.10
2023-01-26T14:24:18.872Z,52.27
2023-01-26T14:26:46.475Z,49.20
2023-01-26T14:29:20.260Z,52.47
2023-01-26T14:31:48.376Z,48.97
2023-01-26T14:34:19.660Z,48.83
2023-01-26T14:36:47.391Z,42.07
2023-01-26T14:39:19.460Z,51.73
2023-01-26T14:41:47.798Z,54.60
2023-01-26T14:44:15.493Z,63.60
2023-01-26T14:47:01.598Z,52.07
2023-01-26T14:49:29.177Z,51.63
2023-01-26T14:51:57.890Z,54.90
2023-01-26T14:54:28.314Z,44.80
2023-01-26T14:56:56.662Z,63.00
2023-01-26T14:59:35.768Z,51.80
2023-01-26T15:02:05.381Z,65.60
2023-01-26T15:04:37.006Z,59.43
2023-01-26T15:07:23.138Z,75.63
2023-01-26T15:09:55.675Z,53.53
2023-01-26T15:12:23.400Z,75.07
2023-01-26T15:15:00.232Z,65.60
2023-01-26T15:17:27.820Z,72.33
2023-01-26T15:19:55.430Z,63.43
2023-01-26T15:22:24.280Z,59.07
2023-01-26T15:25:06.328Z,73.77
2023-01-26T15:27:34.774Z,47.63
2023-01-26T15:30:02.616Z,54.13
2023-01-26T15:32:31.753Z,34.47
2023-01-26T15:35:06.453Z,53.67
2023-01-26T15:37:34.317Z,50.47
2023-01-26T15:40:01.818Z,48.17
2023-01-26T15:42:29.514Z,48.70
2023-01-26T15:44:57.231Z,60.67
2023-01-26T15:47:24.768Z,53.10
2023-01-26T15:49:52.315Z,57.23
2023-01-26T15:52:21.284Z,64.63
2023-01-26T15:54:48.757Z,62.20
2023-01-26T15:57:16.277Z,53.27
2023-01-26T15:59:43.998Z,51.13
2023-01-26T16:02:21.305Z,49.07
2023-01-26T16:04:49.092Z,59.47
2023-01-26T16:07:18.057Z,51.90
2023-01-26T16:09:45.670Z,56.50
2023-01-26T16:12:30.452Z,48.30
2023-01-26T16:14:58.686Z,53.83
2023-01-26T16:17:26.368Z,57.33
2023-01-26T16:19:53.996Z,53.23
2023-01-26T16:22:21.507Z,49.40
2023-01-26T16:24:49.063Z,52.13
2023-01-26T16:27:16.592Z,47.43
2023-01-26T16:29:46.613Z,53.50
2023-01-26T16:32:28.126Z,50.97
2023-01-26T16:34:55.723Z,53.07
2023-01-26T16:37:23.232Z,54.63
2023-01-26T16:39:50.749Z,51.27
2023-01-26T16:42:19.673Z,59.03
2023-01-26T16:44:47.726Z,49.03
2023-01-26T16:47:15.254Z,53.57
2023-01-26T16:49:42.848Z,50.00
2023-01-26T16:52:10.452Z,49.73
2023-01-26T16:54:37.997Z,48.57
2023-01-26T16:57:05.520Z,53.37
2023-01-26T16:59:33.091Z,59.40
2023-01-26T17:02:00.954Z,55.07
2023-01-26T17:04:28.698Z,66.67
2023-01-26T17:06:56.234Z,58.67
2023-01-26T17:09:23.815Z,66.97
2023-01-26T17:11:51.330Z,55.13
2023-01-26T17:14:18.905Z,57.83
2023-01-26T17:16:46.439Z,63.73
2023-01-26T17:19:14.919Z,58.97
2023-01-26T17:21:42.405Z,61.43
2023-01-26T17:24:10.165Z,53.73
2023-01-26T17:26:37.716Z,52.40
2023-01-26T17:29:05.297Z,56.87
2023-01-26T17:31:32.962Z,53.30
2023-01-26T17:34:00.531Z,50.10
2023-01-26T17:36:28.059Z,54.67
2023-01-26T17:38:55.659Z,48.13
2023-01-26T17:41:23.235Z,46.60
2023-01-26T17:43:50.866Z,70.93
2023-01-26T17:46:21.999Z,62.23
2023-01-26T17:48:50.206Z,51.37
2023-01-26T17:51:19.060Z,48.63
2023-01-26T17:53:47.666Z,48.87
2023-01-26T17:56:16.350Z,54.17
2023-01-26T17:58:43.976Z,46.83
2023-01-26T18:01:11.512Z,52.57
2023-01-26T18:03:42.871Z,44.63
2023-01-26T18:06:10.884Z,50.83
2023-01-26T18:08:39.054Z,50.77
2023-01-26T18:11:07.757Z,52.20
2023-01-26T18:13:35.479Z,53.57
2023-01-26T18:16:03.246Z,46.77
2023-01-26T18:18:31.156Z,48.97
2023-01-26T18:20:58.784Z,52.67
2023-01-26T18:23:26.251Z,44.30
2023-01-26T18:25:53.949Z,54.10
2023-01-26T18:28:21.459Z,44.17
2023-01-26T18:30:49.025Z,45.10
2023-01-26T18:33:16.586Z,52.67
2023-01-26T18:35:44.162Z,55.13
2023-01-26T18:38:11.602Z,59.13
2023-01-26T18:40:39.929Z,59.83
2023-01-26T18:43:07.405Z,54.43
2023-01-26T18:45:35.187Z,61.70
2023-01-26T18:48:02.798Z,65.07
2023-01-26T18:50:30.332Z,57.93
2023-01-26T18:52:57.836Z,49.17
2023-01-26T18:55:25.357Z,55.13
2023-01-26T18:57:53.463Z,55.90
2023-01-26T19:00:21.300Z,48.73
2023-01-26T19:02:48.772Z,54.47
2023-01-26T19:05:16.339Z,58.77
2023-01-26T19:07:45.081Z,50.47
2023-01-26T19:10:12.619Z,52.60
2023-01-26T19:12:40.108Z,53.07
2023-01-26T19:15:08.127Z,57.07
2023-01-26T19:17:35.688Z,49.70
2023-01-26T19:20:03.260Z,42.90
2023-01-26T19:22:30.732Z,57.00
2023-01-26T19:24:58.450Z,48.97
2023-01-26T19:27:25.904Z,51.37
2023-01-26T19:29:53.415Z,45.87
2023-01-26T19:32:28.244Z,41.87
2023-01-26T19:35:00.755Z,31.10
2023-01-26T19:37:28.518Z,30.43
2023-01-26T19:39:56.174Z,28.77
2023-01-26T19:42:23.717Z,26.77
2023-01-26T19:44:51.243Z,27.10
2023-01-26T19:47:18.774Z,29.40
2023-01-26T19:49:46.320Z,23.17
2023-01-26T19:52:13.902Z,27.23
2023-01-26T19:54:41.546Z,29.07
2023-01-26T19:57:09.094Z,21.67
2023-01-26T19:59:36.644Z,22.43
2023-01-26T20:02:04.426Z,21.67
2023-01-26T20:04:32.078Z,17.90
2023-01-26T20:06:59.586Z,22.23
2023-01-26T20:09:27.178Z,25.47
2023-01-26T20:11:54.636Z,28.03
2023-01-26T20:14:22.169Z,26.73
2023-01-26T20:16:49.653Z,23.47
2023-01-26T20:19:17.302Z,32.23
2023-01-26T20:21:44.850Z,17.97
2023-01-26T20:24:15.687Z,17.60
2023-01-26T20:26:43.406Z,20.90
2023-01-26T20:29:12.663Z,21.33
2023-01-26T20:31:40.304Z,18.40
2023-01-26T20:34:07.970Z,19.00
2023-01-26T20:36:35.548Z,19.23
2023-01-26T20:39:03.053Z,21.80
2023-01-26T20:41:31.708Z,16.50
2023-01-26T20:44:01.709Z,16.17
2023-01-26T20:46:31.305Z,13.23
2023-01-26T20:48:58.997Z,16.37
2023-01-26T20:51:28.110Z,12.97
2023-01-26T20:53:55.729Z,14.30
2023-01-26T20:56:23.298Z,17.40
2023-01-26T20:58:52.434Z,15.70
2023-01-26T21:01:20.419Z,21.10
2023-01-26T21:03:47.975Z,15.70
2023-01-26T21:06:17.204Z,14.47
2023-01-26T21:08:44.655Z,13.90
2023-01-26T21:11:13.390Z,19.43
2023-01-26T21:13:41.229Z,12.07
2023-01-26T21:16:09.867Z,12.03
2023-01-26T21:18:37.350Z,16.60
2023-01-26T21:21:06.007Z,13.47
2023-01-26T21:23:34.337Z,9.87
2023-01-26T21:26:03.516Z,13.73
2023-01-26T21:28:31.499Z,11.23
2023-01-26T21:31:09.305Z,12.10
2023-01-26T21:33:38.180Z,7.57
2023-01-26T21:36:06.957Z,11.93
2023-01-26T21:38:35.722Z,13.40
2023-01-26T21:41:04.579Z,10.07
2023-01-26T21:43:32.093Z,11.93
2023-01-26T21:45:59.863Z,13.47
2023-01-26T21:48:27.425Z,8.73
2023-01-26T21:51:00.809Z,15.33
2023-01-26T21:53:28.343Z,15.67
2023-01-26T21:55:55.805Z,8.67
2023-01-26T21:58:23.958Z,14.03
2023-01-26T22:00:51.421Z,17.97
2023-01-26T22:03:18.996Z,10.23
2023-01-26T22:05:55.312Z,8.43
2023-01-26T22:08:22.859Z,8.17
2023-01-26T22:10:54.171Z,11.17
2023-01-26T22:13:21.788Z,13.63
2023-01-26T22:15:49.309Z,14.67
2023-01-26T22:18:17.245Z,15.10
2023-01-26T22:20:45.111Z,11.53
2023-01-26T22:23:12.687Z,11.00
2023-01-26T22:25:40.842Z,14.70
2023-01-26T22:28:08.642Z,12.80
2023-01-26T22:30:36.151Z,12.77
2023-01-26T22:33:03.675Z,8.50
2023-01-26T22:35:31.418Z,11.10
2023-01-26T22:37:59.474Z,10.43
2023-01-26T22:40:26.988Z,11.13
2023-01-26T22:42:54.613Z,7.43
2023-01-26T22:45:22.065Z,12.57
2023-01-26T22:47:49.738Z,11.40
2023-01-26T22:50:17.403Z,12.40
2023-01-26T22:52:44.958Z,11.00
2023-01-26T22:55:12.490Z,11.33
2023-01-26T22:57:40.003Z,8.40
2023-01-26T23:00:07.920Z,11.70
2023-01-26T23:02:35.480Z,16.70
2023-01-26T23:05:02.934Z,11.20
2023-01-26T23:07:30.409Z,13.13
2023-01-26T23:09:57.892Z,7.47
2023-01-26T23:12:25.394Z,9.43
2023-01-26T23:14:52.828Z,8.30
2023-01-26T23:17:20.350Z,14.37
2023-01-26T23:19:47.838Z,7.13
2023-01-26T23:22:15.411Z,10.53
2023-01-26T23:24:43.150Z,14.40
2023-01-26T23:27:10.633Z,8.53
2023-01-26T23:29:38.130Z,10.60
2023-01-26T23:32:05.862Z,12.17
2023-01-26T23:34:33.361Z,8.17
2023-01-26T23:37:00.922Z,6.60
2023-01-26T23:39:28.388Z,8.50
2023-01-26T23:41:55.958Z,12.57
2023-01-26T23:44:23.395Z,5.97
2023-01-26T23:46:51.153Z,7.10
2023-01-26T23:49:18.695Z,7.33
2023-01-26T23:51:46.208Z,8.43
2023-01-26T23:54:13.738Z,9.60
2023-01-26T23:56:41.363Z,8.73
2023-01-26T23:59:08.849Z,16.27
